createdAt,value
2017-08-16T00:00:31.814Z,95220.28
2017-08-16T00:02:59.374Z,95223.75
2017-08-16T00:05:26.910Z,95223.34
2017-08-16T00:07:54.462Z,95210.23
2017-08-16T00:10:22.488Z,95205.59
2017-08-16T00:12:50.057Z,95219.81
2017-08-16T00:15:17.574Z,95210.70
2017-08-16T00:17:45.153Z,95206.00
2017-08-16T00:20:12.748Z,95208.61
2017-08-16T00:22:40.516Z,95204.36
2017-08-16T00:25:08.159Z,95210.92
2017-08-16T00:27:35.706Z,95215.72
2017-08-16T00:30:03.262Z,95208.00
2017-08-16T00:32:30.927Z,95213.52
2017-08-16T00:34:59.315Z,95217.13
2017-08-16T00:37:26.887Z,95216.89
2017-08-16T00:39:54.547Z,95220.72
2017-08-16T00:42:22.073Z,95225.36
2017-08-16T00:44:49.646Z,95219.44
2017-08-16T00:47:17.204Z,95223.97
2017-08-16T00:49:44.729Z,95223.24
2017-08-16T00:52:12.431Z,95217.61
2017-08-16T00:54:40.020Z,95219.84
2017-08-16T00:57:07.660Z,95211.33
2017-08-16T00:59:35.329Z,95211.97
2017-08-16T01:02:02.897Z,95224.45
2017-08-16T01:04:30.536Z,95221.03
2017-08-16T01:06:58.229Z,95213.26
2017-08-16T01:09:25.837Z,95214.19
2017-08-16T01:11:53.907Z,95206.94
2017-08-16T01:14:21.507Z,95203.63
2017-08-16T01:16:49.278Z,95190.30
2017-08-16T01:19:16.891Z,95215.06
2017-08-16T01:21:44.433Z,95210.09
2017-08-16T01:24:12.012Z,95208.79
2017-08-16T01:26:39.605Z,95205.82
2017-08-16T01:29:07.204Z,95199.66
2017-08-16T01:31:35.088Z,95184.23
2017-08-16T01:34:02.657Z,95189.75
2017-08-16T01:36:30.252Z,95204.06
2017-08-16T01:38:58.139Z,95194.45
2017-08-16T01:41:25.673Z,95194.31
2017-08-16T01:43:53.419Z,95207.00
2017-08-16T01:46:21.084Z,95204.17
2017-08-16T01:48:48.668Z,95208.56
2017-08-16T01:51:16.218Z,95208.97
2017-08-16T01:53:43.728Z,95204.60
2017-08-16T01:56:11.322Z,95200.84
2017-08-16T01:58:38.817Z,95209.97
2017-08-16T02:01:06.369Z,95210.54
2017-08-16T02:03:33.913Z,95207.48
2017-08-16T02:06:01.409Z,95210.36
2017-08-16T02:08:28.970Z,95200.16
2017-08-16T02:10:56.502Z,95210.57
2017-08-16T02:13:23.997Z,95203.38
2017-08-16T02:15:51.529Z,95205.25
2017-08-16T02:18:19.065Z,95204.14
2017-08-16T02:20:46.586Z,95203.59
2017-08-16T02:23:14.086Z,95187.97
2017-08-16T02:25:41.629Z,95205.51
2017-08-16T02:28:09.126Z,95201.92
2017-08-16T02:30:36.676Z,95201.35
2017-08-16T02:33:04.174Z,95195.48
2017-08-16T02:35:31.710Z,95198.33
2017-08-16T02:37:59.250Z,95203.66
2017-08-16T02:40:26.749Z,95201.80
2017-08-16T02:42:54.365Z,95202.43
2017-08-16T02:45:21.869Z,95215.45
2017-08-16T02:47:49.380Z,95217.41
2017-08-16T02:50:16.962Z,95219.30
2017-08-16T02:52:44.650Z,95211.95
2017-08-16T02:55:12.197Z,95231.27
2017-08-16T02:57:39.694Z,95224.53
2017-08-16T03:00:07.305Z,95238.72
2017-08-16T03:02:34.859Z,95244.05
2017-08-16T03:05:02.361Z,95243.49
2017-08-16T03:07:29.882Z,95248.22
2017-08-16T03:09:57.440Z,95242.73
2017-08-16T03:12:24.932Z,95249.00
2017-08-16T03:14:52.436Z,95244.48
2017-08-16T03:17:19.968Z,95258.52
2017-08-16T03:19:47.507Z,95254.41
2017-08-16T03:22:15.013Z,95256.83
2017-08-16T03:24:42.558Z,95256.64
2017-08-16T03:27:10.081Z,95258.16
2017-08-16T03:29:37.616Z,95254.78
2017-08-16T03:32:05.121Z,95251.91
2017-08-16T03:34:32.660Z,95248.87
2017-08-16T03:37:00.160Z,95251.99
2017-08-16T03:39:27.669Z,95255.98
2017-08-16T03:41:55.209Z,95259.34
2017-08-16T03:44:22.768Z,95251.74
2017-08-16T03:46:50.341Z,95237.52
2017-08-16T03:49:17.855Z,95260.14
2017-08-16T03:51:45.359Z,95258.24
2017-08-16T03:54:12.896Z,95260.41
2017-08-16T03:56:40.397Z,95262.25
2017-08-16T03:59:07.949Z,95263.77
2017-08-16T04:01:35.477Z,95257.73
2017-08-16T04:04:03.269Z,95259.55
2017-08-16T04:06:30.905Z,95263.14
2017-08-16T04:08:58.852Z,95256.64
2017-08-16T04:11:26.426Z,95254.87
2017-08-16T04:13:54.053Z,95252.00
2017-08-16T04:16:21.632Z,95252.72
2017-08-16T04:18:49.171Z,95259.31
2017-08-16T04:21:16.695Z,95260.23
2017-08-16T04:23:44.268Z,95269.69
2017-08-16T04:26:11.799Z,95267.35
2017-08-16T04:28:39.323Z,95266.78
2017-08-16T04:31:06.886Z,95270.39
2017-08-16T04:33:34.388Z,95266.70
2017-08-16T04:36:01.927Z,95268.19
2017-08-16T04:38:29.490Z,95273.25
2017-08-16T04:40:56.997Z,95277.03
2017-08-16T04:43:24.584Z,95268.65
2017-08-16T04:45:52.139Z,95264.95
2017-08-16T04:48:19.717Z,95259.34
2017-08-16T04:50:47.235Z,95258.78
2017-08-16T04:53:14.798Z,95252.92
2017-08-16T04:55:42.313Z,95255.11
2017-08-16T04:58:09.829Z,95260.58
2017-08-16T05:00:37.370Z,95259.98
2017-08-16T05:03:04.873Z,95263.91
2017-08-16T05:05:32.451Z,95273.02
2017-08-16T05:07:59.946Z,95271.61
2017-08-16T05:10:27.613Z,95277.84
2017-08-16T05:12:55.255Z,95277.98
2017-08-16T05:15:22.894Z,95281.55
2017-08-16T05:17:50.493Z,95282.44
2017-08-16T05:20:18.069Z,95284.64
2017-08-16T05:22:45.605Z,95291.63
2017-08-16T05:25:13.182Z,95286.64
2017-08-16T05:27:40.749Z,95299.96
2017-08-16T05:30:08.293Z,95289.55
2017-08-16T05:32:35.823Z,95299.34
2017-08-16T05:35:03.512Z,95303.08
2017-08-16T05:37:31.309Z,95303.78
2017-08-16T05:39:58.912Z,95304.22
2017-08-16T05:42:26.489Z,95299.81
2017-08-16T05:44:54.218Z,95299.81
2017-08-16T05:47:21.801Z,95296.41
2017-08-16T05:49:49.329Z,95304.55
2017-08-16T05:52:16.837Z,95302.62
2017-08-16T05:54:44.391Z,95309.88
2017-08-16T05:57:11.965Z,95299.06
2017-08-16T05:59:39.511Z,95300.34
2017-08-16T06:02:07.088Z,95293.13
2017-08-16T06:04:34.705Z,95290.80
2017-08-16T06:07:02.303Z,95288.84
2017-08-16T06:09:29.817Z,95285.39
2017-08-16T06:11:57.445Z,95286.12
2017-08-16T06:14:25.053Z,95273.42
2017-08-16T06:16:52.738Z,95284.08
2017-08-16T06:19:20.898Z,95286.70
2017-08-16T06:21:48.446Z,95286.97
2017-08-16T06:24:16.208Z,95279.44
2017-08-16T06:26:43.793Z,95280.45
2017-08-16T06:29:11.667Z,95281.95
2017-08-16T06:31:39.241Z,95281.16
2017-08-16T06:34:06.881Z,95282.05
2017-08-16T06:36:34.540Z,95280.86
2017-08-16T06:39:02.206Z,95280.51
2017-08-16T06:41:30.019Z,95280.78
2017-08-16T06:43:57.777Z,95278.22
2017-08-16T06:46:25.830Z,95274.06
2017-08-16T06:48:53.453Z,95273.00
2017-08-16T06:51:21.025Z,95275.04
2017-08-16T06:53:48.996Z,95273.00
2017-08-16T06:56:16.660Z,95275.17
2017-08-16T06:58:44.447Z,95276.34
2017-08-16T07:01:12.599Z,95279.77
2017-08-16T07:03:40.460Z,95278.44
2017-08-16T07:06:08.002Z,95273.56
2017-08-16T07:08:35.700Z,95276.97
2017-08-16T07:11:04.869Z,95266.95
2017-08-16T07:13:32.782Z,95279.50
2017-08-16T07:16:01.639Z,95269.44
2017-08-16T07:18:29.274Z,95254.06
2017-08-16T07:20:56.880Z,95275.36
2017-08-16T07:23:24.449Z,95261.63
2017-08-16T07:25:52.112Z,95266.41
2017-08-16T07:28:19.657Z,95265.27
2017-08-16T07:30:47.341Z,95272.09
2017-08-16T07:33:14.988Z,95276.58
2017-08-16T07:35:42.516Z,95279.35
2017-08-16T07:38:10.247Z,95260.83
2017-08-16T07:40:37.970Z,95267.59
2017-08-16T07:43:05.677Z,95255.84
2017-08-16T07:45:33.407Z,95265.45
2017-08-16T07:48:01.080Z,95247.52
2017-08-16T07:50:28.750Z,95256.17
2017-08-16T07:52:56.535Z,95256.30
2017-08-16T07:55:24.165Z,95248.36
2017-08-16T07:57:51.934Z,95242.70
2017-08-16T08:00:19.533Z,95256.08
2017-08-16T08:02:47.248Z,95245.50
2017-08-16T08:05:14.928Z,95254.85
2017-08-16T08:07:42.677Z,95253.55
2017-08-16T08:10:30.225Z,95241.83
2017-08-16T08:12:59.745Z,95253.14
2017-08-16T08:15:28.207Z,95237.47
2017-08-16T08:18:10.749Z,95261.65
2017-08-16T08:20:42.778Z,95253.88
2017-08-16T08:23:11.986Z,95252.53
2017-08-16T08:25:45.506Z,95255.66
2017-08-16T08:31:33.982Z,95248.89
2017-08-16T08:37:01.798Z,95251.18
2017-08-16T08:39:39.553Z,95253.79
2017-08-16T08:42:07.609Z,95253.66
2017-08-16T08:44:51.059Z,95234.59
2017-08-16T08:47:23.708Z,95239.27
2017-08-16T08:53:01.203Z,95241.52
2017-08-16T08:55:42.634Z,95237.84
2017-08-16T08:58:16.923Z,95225.55
2017-08-16T09:27:50.209Z,95209.33
2017-08-16T09:30:51.682Z,95194.34
2017-08-16T09:33:30.799Z,95212.53
2017-08-16T09:36:03.923Z,95205.70
2017-08-16T09:38:31.825Z,95198.84
2017-08-16T09:41:00.793Z,95189.00
2017-08-16T09:43:31.084Z,95208.13
2017-08-16T09:45:59.151Z,95201.77
2017-08-16T09:48:33.224Z,95201.73
2017-08-16T09:51:01.643Z,95211.23
2017-08-16T09:53:30.876Z,95201.11
2017-08-16T09:56:06.087Z,95198.34
2017-08-16T09:58:35.180Z,95196.30
2017-08-16T10:01:05.692Z,95199.64
2017-08-16T10:03:33.433Z,95198.18
2017-08-16T10:08:46.437Z,95188.47
2017-08-16T10:17:52.061Z,95201.64
2017-08-16T10:24:17.125Z,95199.55
2017-08-16T10:26:47.957Z,95192.69
2017-08-16T10:29:26.428Z,95181.64
2017-08-16T10:32:09.880Z,95186.53
2017-08-16T10:48:39.718Z,95172.33
2017-08-16T10:51:10.707Z,95166.45
2017-08-16T10:53:56.603Z,95165.78
2017-08-16T10:56:27.448Z,95153.56
2017-08-16T10:59:00.229Z,95167.16
2017-08-16T11:01:30.137Z,95168.90
2017-08-16T11:04:01.068Z,95166.05
2017-08-16T11:06:37.850Z,95166.87
2017-08-16T11:09:05.954Z,95171.34
2017-08-16T11:11:41.854Z,95151.28
2017-08-16T11:14:10.618Z,95134.02
2017-08-16T11:26:58.539Z,95137.61
2017-08-16T11:29:30.181Z,95133.93
2017-08-16T11:32:02.129Z,95141.70
2017-08-16T11:34:38.912Z,95132.65
2017-08-16T11:43:11.619Z,95134.74
2017-08-16T12:04:54.761Z,95111.80
2017-08-16T12:11:14.201Z,95104.84
2017-08-16T12:16:27.550Z,95078.62
2017-08-16T12:18:57.001Z,95073.95
2017-08-16T12:21:24.574Z,95087.67
2017-08-16T12:23:55.807Z,95093.77
2017-08-16T12:26:40.327Z,95095.22
2017-08-16T12:29:13.855Z,95089.91
2017-08-16T12:31:43.331Z,95088.09
2017-08-16T12:34:11.170Z,95084.74
2017-08-16T12:36:44.197Z,95089.05
2017-08-16T12:52:44.675Z,95061.33
2017-08-16T12:55:46.901Z,95072.92
2017-08-16T12:58:19.034Z,95074.26
2017-08-16T13:04:40.078Z,95075.86
2017-08-16T13:07:11.025Z,95049.41
2017-08-16T13:09:43.433Z,95064.04
2017-08-16T13:12:22.070Z,95064.73
2017-08-16T13:14:51.005Z,95064.53
2017-08-16T13:17:25.369Z,95061.19
2017-08-16T13:19:53.224Z,95063.41
2017-08-16T13:22:45.519Z,95058.06
2017-08-16T13:29:02.832Z,95060.59
2017-08-16T13:31:36.124Z,95048.73
2017-08-16T13:34:05.603Z,95045.60
2017-08-16T13:36:34.263Z,95039.42
2017-08-16T13:57:13.759Z,95035.38
2017-08-16T13:59:41.374Z,95034.97
2017-08-16T14:02:08.937Z,95039.58
2017-08-16T14:04:36.843Z,95025.44
2017-08-16T14:07:06.349Z,95031.46
2017-08-16T14:09:38.178Z,95041.18
2017-08-16T14:12:07.100Z,95028.91
2017-08-16T14:14:40.727Z,95041.49
2017-08-16T14:37:44.391Z,95019.83
2017-08-16T14:40:45.315Z,95039.47
2017-08-16T14:43:42.828Z,95034.33
2017-08-16T15:01:29.990Z,95031.34
2017-08-16T15:03:57.704Z,95038.59
2017-08-16T15:06:25.580Z,95020.93
2017-08-16T15:08:53.540Z,95044.13
2017-08-16T15:11:28.486Z,95041.94
2017-08-16T15:13:56.422Z,95045.76
2017-08-16T15:16:27.849Z,95044.08
2017-08-16T15:19:01.738Z,95036.41
2017-08-16T15:21:29.977Z,95042.77
2017-08-16T15:23:58.361Z,95049.84
2017-08-16T15:26:26.168Z,95047.93
2017-08-16T15:28:53.877Z,95043.69
2017-08-16T15:31:21.446Z,95040.23
2017-08-16T15:33:49.009Z,95042.22
2017-08-16T15:36:16.661Z,95020.25
2017-08-16T15:38:45.912Z,95033.17
2017-08-16T15:41:13.855Z,95025.35
2017-08-16T15:43:41.432Z,95032.00
2017-08-16T15:46:09.128Z,95026.77
2017-08-16T15:48:36.895Z,95028.14
2017-08-16T15:51:04.604Z,95031.19
2017-08-16T15:53:32.258Z,95019.63
2017-08-16T15:55:59.857Z,95034.16
2017-08-16T15:58:27.409Z,95030.27
2017-08-16T16:00:55.089Z,95031.98
2017-08-16T16:03:22.626Z,95034.27
2017-08-16T16:05:51.305Z,95033.55
2017-08-16T16:08:18.852Z,95038.89
2017-08-16T16:10:46.400Z,95021.30
2017-08-16T16:13:13.987Z,95036.48
2017-08-16T16:15:41.718Z,95031.03
2017-08-16T16:18:09.450Z,95026.53
2017-08-16T16:20:39.105Z,95034.79
2017-08-16T16:23:06.637Z,95030.60
2017-08-16T16:25:34.192Z,95020.77
2017-08-16T16:28:01.939Z,95027.55
2017-08-16T16:30:29.458Z,95020.73
2017-08-16T16:32:57.398Z,95011.03
2017-08-16T16:35:24.992Z,95035.66
2017-08-16T16:37:52.552Z,95037.61
2017-08-16T16:40:20.099Z,95042.02
2017-08-16T16:42:48.318Z,95040.41
2017-08-16T16:45:15.841Z,95047.62
2017-08-16T16:47:43.334Z,95051.88
2017-08-16T16:50:10.950Z,95052.83
2017-08-16T16:52:38.454Z,95056.36
2017-08-16T16:55:06.093Z,95062.99
2017-08-16T16:57:33.662Z,95050.25
2017-08-16T17:00:01.387Z,95049.92
2017-08-16T17:02:29.040Z,95049.95
2017-08-16T17:04:56.836Z,95050.71
2017-08-16T17:07:24.448Z,95057.38
2017-08-16T17:09:51.952Z,95058.30
2017-08-16T17:12:19.498Z,95058.84
2017-08-16T17:14:47.001Z,95055.88
2017-08-16T17:17:14.541Z,95055.96
2017-08-16T17:19:42.078Z,95049.70
2017-08-16T17:22:09.636Z,95043.73
2017-08-16T17:24:37.319Z,95049.73
2017-08-16T17:27:04.834Z,95057.62
2017-08-16T17:29:32.541Z,95067.42
2017-08-16T17:32:00.054Z,95070.17
2017-08-16T17:34:27.618Z,95066.62
2017-08-16T17:36:55.310Z,95075.37
2017-08-16T17:39:22.824Z,95079.11
2017-08-16T17:41:50.394Z,95078.46
2017-08-16T17:44:17.889Z,95084.15
2017-08-16T17:46:45.550Z,95087.31
2017-08-16T17:49:13.053Z,95095.25
2017-08-16T17:51:41.365Z,95091.20
2017-08-16T17:54:08.903Z,95101.08
2017-08-16T17:56:38.686Z,95097.42
2017-08-16T17:59:06.927Z,95075.88
2017-08-16T18:01:34.488Z,95087.58
2017-08-16T18:04:02.045Z,95101.13
2017-08-16T18:06:30.490Z,95099.11
2017-08-16T18:08:58.013Z,95109.86
2017-08-16T18:11:25.591Z,95109.13
2017-08-16T18:13:53.209Z,95101.96
2017-08-16T18:16:20.718Z,95112.19
2017-08-16T18:18:48.253Z,95122.59
2017-08-16T18:21:15.790Z,95131.17
2017-08-16T18:23:43.426Z,95127.33
2017-08-16T18:26:10.983Z,95127.02
2017-08-16T18:28:39.011Z,95126.14
2017-08-16T18:31:06.638Z,95133.23
2017-08-16T18:33:34.224Z,95131.09
2017-08-16T18:36:01.950Z,95129.87
2017-08-16T18:38:29.522Z,95133.46
2017-08-16T18:40:57.292Z,95138.57
2017-08-16T18:43:24.949Z,95135.94
2017-08-16T18:45:52.554Z,95140.64
2017-08-16T18:48:21.086Z,95147.19
2017-08-16T18:50:48.687Z,95148.11
2017-08-16T18:53:16.244Z,95149.28
2017-08-16T18:55:43.754Z,95153.19
2017-08-16T18:58:11.606Z,95151.54
2017-08-16T19:00:39.230Z,95154.59
2017-08-16T19:03:06.869Z,95154.33
2017-08-16T19:05:34.407Z,95153.03
2017-08-16T19:08:01.973Z,95148.64
2017-08-16T19:10:29.477Z,95152.84
2017-08-16T19:12:57.061Z,95151.85
2017-08-16T19:15:24.641Z,95148.27
2017-08-16T19:17:52.152Z,95151.85
2017-08-16T19:20:19.664Z,95157.26
2017-08-16T19:22:47.219Z,95157.80
2017-08-16T19:25:14.718Z,95161.58
2017-08-16T19:27:42.214Z,95170.54
2017-08-16T19:30:09.755Z,95169.81
2017-08-16T19:32:37.254Z,95171.94
2017-08-16T19:35:04.879Z,95166.00
2017-08-16T19:37:32.389Z,95169.47
2017-08-16T19:39:59.895Z,95172.52
2017-08-16T19:42:27.478Z,95168.13
2017-08-16T19:44:54.988Z,95171.17
2017-08-16T19:47:22.562Z,95176.14
2017-08-16T19:49:50.097Z,95172.13
2017-08-16T19:52:17.657Z,95171.59
2017-08-16T19:54:45.189Z,95169.31
2017-08-16T19:57:12.729Z,95162.67
2017-08-16T19:59:40.227Z,95169.13
2017-08-16T20:02:07.821Z,95171.28
2017-08-16T20:04:35.361Z,95168.13
2017-08-16T20:07:02.861Z,95171.22
2017-08-16T20:09:30.405Z,95171.98
2017-08-16T20:11:57.920Z,95171.33
2017-08-16T20:14:25.514Z,95176.59
2017-08-16T20:16:53.061Z,95171.44
2017-08-16T20:19:20.570Z,95176.20
2017-08-16T20:21:48.109Z,95167.09
2017-08-16T20:24:15.654Z,95170.67
2017-08-16T20:26:43.189Z,95164.05
2017-08-16T20:29:10.777Z,95165.91
2017-08-16T20:31:38.277Z,95169.53
2017-08-16T20:34:05.814Z,95161.53
2017-08-16T20:36:33.430Z,95158.81
2017-08-16T20:39:00.938Z,95158.14
2017-08-16T20:41:28.590Z,95163.86
2017-08-16T20:43:56.464Z,95160.15
2017-08-16T20:46:23.961Z,95153.35
2017-08-16T20:48:51.496Z,95159.16
2017-08-16T20:51:19.051Z,95159.13
2017-08-16T20:53:46.574Z,95167.52
2017-08-16T20:56:14.076Z,95164.47
2017-08-16T20:58:41.638Z,95172.09
2017-08-16T21:01:09.174Z,95169.42
2017-08-16T21:03:36.734Z,95172.16
2017-08-16T21:06:04.234Z,95174.64
2017-08-16T21:08:31.793Z,95174.28
2017-08-16T21:10:59.314Z,95173.53
2017-08-16T21:13:26.883Z,95177.15
2017-08-16T21:15:54.433Z,95175.24
2017-08-16T21:18:21.965Z,95172.61
2017-08-16T21:20:49.505Z,95174.48
2017-08-16T21:23:17.017Z,95174.32
2017-08-16T21:25:44.575Z,95168.77
2017-08-16T21:28:12.073Z,95168.86
2017-08-16T21:30:39.587Z,95178.52
2017-08-16T21:33:07.141Z,95178.55
2017-08-16T21:35:34.658Z,95180.81
2017-08-16T21:38:02.178Z,95174.77
2017-08-16T21:40:29.713Z,95176.27
2017-08-16T21:42:57.259Z,95183.32
2017-08-16T21:45:24.831Z,95168.55
2017-08-16T21:47:52.327Z,95174.39
2017-08-16T21:50:19.862Z,95172.11
2017-08-16T21:52:47.358Z,95174.97
2017-08-16T21:55:14.897Z,95173.70
2017-08-16T21:57:42.415Z,95173.48
2017-08-16T22:00:09.965Z,95173.86
2017-08-16T22:02:37.468Z,95168.39
2017-08-16T22:05:05.037Z,95175.86
2017-08-16T22:07:32.536Z,95176.41
2017-08-16T22:10:00.089Z,95181.93
2017-08-16T22:12:27.656Z,95183.11
2017-08-16T22:14:55.198Z,95173.14
2017-08-16T22:17:22.759Z,95181.42
2017-08-16T22:19:50.257Z,95182.19
2017-08-16T22:22:22.790Z,95185.81
2017-08-16T22:24:50.289Z,95184.73
2017-08-16T22:27:17.829Z,95183.56
2017-08-16T22:29:45.390Z,95186.26
2017-08-16T22:32:12.898Z,95187.02
2017-08-16T22:34:40.444Z,95185.72
2017-08-16T22:37:07.957Z,95185.56
2017-08-16T22:39:35.505Z,95180.61
2017-08-16T22:42:03.061Z,95186.67
2017-08-16T22:44:30.570Z,95177.94
2017-08-16T22:46:58.172Z,95173.12
2017-08-16T22:49:25.729Z,95173.21
2017-08-16T22:51:53.266Z,95172.67
2017-08-16T22:54:20.798Z,95177.72
2017-08-16T22:56:48.348Z,95175.50
2017-08-16T22:59:15.856Z,95176.17
2017-08-16T23:01:43.409Z,95179.70
2017-08-16T23:04:10.926Z,95169.48
2017-08-16T23:06:38.461Z,95171.26
2017-08-16T23:09:05.997Z,95165.92
2017-08-16T23:11:33.656Z,95165.55
2017-08-16T23:14:01.203Z,95171.48
2017-08-16T23:16:28.739Z,95173.23
2017-08-16T23:18:56.400Z,95170.84
2017-08-16T23:21:23.907Z,95166.52
2017-08-16T23:23:51.422Z,95168.87
2017-08-16T23:26:18.954Z,95175.79
2017-08-16T23:28:46.452Z,95165.79
2017-08-16T23:31:14.002Z,95169.66
2017-08-16T23:33:41.497Z,95164.36
2017-08-16T23:36:09.040Z,95166.70
2017-08-16T23:38:36.537Z,95164.13
2017-08-16T23:41:04.138Z,95162.88
2017-08-16T23:43:31.682Z,95164.47
2017-08-16T23:45:59.244Z,95164.72
2017-08-16T23:48:26.941Z,95164.91
2017-08-16T23:50:54.453Z,95147.95
2017-08-16T23:53:22.024Z,95152.16
2017-08-16T23:55:49.574Z,95156.92
2017-08-16T23:58:17.073Z,95156.59
